sensor_id;sensor_type;location;lat;lon;timestamp;P1;durP1;ratioP1;P2;durP2;ratioP2
27983;SDS011;15317;50.360;8.726;2023-11-22T00:01:48;7.30;;;6.70;;
27983;SDS011;15317;50.360;8.726;2023-11-22T00:06:52;8.87;;;7.10;;
27983;SDS011;15317;50.360;8.726;2023-11-22T00:11:55;8.67;;;7.30;;
27983;SDS011;15317;50.360;8.726;2023-11-22T00:17:00;8.13;;;7.30;;
27983;SDS011;15317;50.360;8.726;2023-11-22T00:22:04;7.60;;;6.90;;
27983;SDS011;15317;50.360;8.726;2023-11-22T00:27:15;7.27;;;6.23;;
27983;SDS011;15317;50.360;8.726;2023-11-22T00:32:21;7.93;;;6.73;;
27983;SDS011;15317;50.360;8.726;2023-11-22T00:37:24;7.40;;;6.47;;
27983;SDS011;15317;50.360;8.726;2023-11-22T00:42:27;7.27;;;6.57;;
27983;SDS011;15317;50.360;8.726;2023-11-22T00:47:32;6.73;;;6.03;;
27983;SDS011;15317;50.360;8.726;2023-11-22T00:52:35;6.53;;;5.87;;
27983;SDS011;15317;50.360;8.726;2023-11-22T00:57:39;6.63;;;5.97;;
27983;SDS011;15317;50.360;8.726;2023-11-22T01:02:44;6.80;;;5.97;;
27983;SDS011;15317;50.360;8.726;2023-11-22T01:07:48;6.33;;;5.73;;
27983;SDS011;15317;50.360;8.726;2023-11-22T01:12:51;6.90;;;6.07;;
27983;SDS011;15317;50.360;8.726;2023-11-22T01:17:56;6.50;;;5.90;;
27983;SDS011;15317;50.360;8.726;2023-11-22T01:22:59;6.27;;;5.67;;
27983;SDS011;15317;50.360;8.726;2023-11-22T01:28:03;6.63;;;6.03;;
27983;SDS011;15317;50.360;8.726;2023-11-22T01:33:08;6.80;;;6.07;;
27983;SDS011;15317;50.360;8.726;2023-11-22T01:38:12;6.60;;;5.93;;
27983;SDS011;15317;50.360;8.726;2023-11-22T01:43:16;7.50;;;5.97;;
27983;SDS011;15317;50.360;8.726;2023-11-22T01:48:22;7.70;;;7.00;;
27983;SDS011;15317;50.360;8.726;2023-11-22T01:53:25;7.07;;;6.40;;
27983;SDS011;15317;50.360;8.726;2023-11-22T01:58:29;7.47;;;6.77;;
27983;SDS011;15317;50.360;8.726;2023-11-22T02:03:34;6.97;;;5.97;;
27983;SDS011;15317;50.360;8.726;2023-11-22T02:08:37;7.20;;;6.43;;
27983;SDS011;15317;50.360;8.726;2023-11-22T02:13:40;8.73;;;6.20;;
27983;SDS011;15317;50.360;8.726;2023-11-22T02:18:45;7.47;;;6.50;;
27983;SDS011;15317;50.360;8.726;2023-11-22T02:23:51;6.70;;;6.00;;
27983;SDS011;15317;50.360;8.726;2023-11-22T02:28:54;6.80;;;6.20;;
27983;SDS011;15317;50.360;8.726;2023-11-22T02:33:58;7.27;;;6.57;;
27983;SDS011;15317;50.360;8.726;2023-11-22T02:39:03;6.37;;;5.73;;
27983;SDS011;15317;50.360;8.726;2023-11-22T02:44:06;7.50;;;6.80;;
27983;SDS011;15317;50.360;8.726;2023-11-22T02:49:09;6.90;;;6.20;;
27983;SDS011;15317;50.360;8.726;2023-11-22T02:54:14;6.30;;;5.77;;
27983;SDS011;15317;50.360;8.726;2023-11-22T02:59:17;7.07;;;6.43;;
27983;SDS011;15317;50.360;8.726;2023-11-22T03:04:21;7.77;;;6.33;;
27983;SDS011;15317;50.360;8.726;2023-11-22T03:09:26;6.27;;;5.60;;
27983;SDS011;15317;50.360;8.726;2023-11-22T03:14:30;6.63;;;5.83;;
27983;SDS011;15317;50.360;8.726;2023-11-22T03:19:33;7.00;;;5.73;;
27983;SDS011;15317;50.360;8.726;2023-11-22T03:24:38;6.67;;;5.97;;
27983;SDS011;15317;50.360;8.726;2023-11-22T03:29:41;6.67;;;5.53;;
27983;SDS011;15317;50.360;8.726;2023-11-22T03:34:44;6.30;;;5.53;;
27983;SDS011;15317;50.360;8.726;2023-11-22T03:39:49;7.23;;;5.40;;
27983;SDS011;15317;50.360;8.726;2023-11-22T03:44:52;7.60;;;5.47;;
27983;SDS011;15317;50.360;8.726;2023-11-22T03:49:55;6.17;;;5.57;;
27983;SDS011;15317;50.360;8.726;2023-11-22T03:55:00;7.40;;;5.70;;
27983;SDS011;15317;50.360;8.726;2023-11-22T04:00:05;6.17;;;5.57;;
27983;SDS011;15317;50.360;8.726;2023-11-22T04:05:11;6.57;;;5.87;;
27983;SDS011;15317;50.360;8.726;2023-11-22T04:10:16;6.20;;;5.60;;
27983;SDS011;15317;50.360;8.726;2023-11-22T04:15:21;7.83;;;5.90;;
27983;SDS011;15317;50.360;8.726;2023-11-22T04:20:25;6.60;;;5.97;;
27983;SDS011;15317;50.360;8.726;2023-11-22T04:25:30;6.60;;;6.00;;
27983;SDS011;15317;50.360;8.726;2023-11-22T04:30:36;8.23;;;5.90;;
27983;SDS011;15317;50.360;8.726;2023-11-22T04:35:39;6.43;;;5.80;;
27983;SDS011;15317;50.360;8.726;2023-11-22T04:40:45;7.77;;;6.33;;
27983;SDS011;15317;50.360;8.726;2023-11-22T04:45:49;7.67;;;6.23;;
27983;SDS011;15317;50.360;8.726;2023-11-22T04:50:52;7.80;;;6.70;;
27983;SDS011;15317;50.360;8.726;2023-11-22T04:55:57;7.07;;;6.00;;
27983;SDS011;15317;50.360;8.726;2023-11-22T05:01:01;6.40;;;5.80;;
27983;SDS011;15317;50.360;8.726;2023-11-22T05:06:05;8.43;;;6.40;;
27983;SDS011;15317;50.360;8.726;2023-11-22T05:11:10;6.67;;;5.97;;
27983;SDS011;15317;50.360;8.726;2023-11-22T05:16:13;6.97;;;6.27;;
27983;SDS011;15317;50.360;8.726;2023-11-22T05:21:16;7.20;;;6.50;;
27983;SDS011;15317;50.360;8.726;2023-11-22T05:26:21;7.30;;;6.27;;
27983;SDS011;15317;50.360;8.726;2023-11-22T05:31:24;6.70;;;6.00;;
27983;SDS011;15317;50.360;8.726;2023-11-22T05:36:27;7.10;;;6.40;;
27983;SDS011;15317;50.360;8.726;2023-11-22T05:41:32;6.70;;;6.00;;
27983;SDS011;15317;50.360;8.726;2023-11-22T05:46:36;6.63;;;5.43;;
27983;SDS011;15317;50.360;8.726;2023-11-22T05:51:40;6.20;;;5.57;;
27983;SDS011;15317;50.360;8.726;2023-11-22T05:56:45;6.00;;;5.40;;
27983;SDS011;15317;50.360;8.726;2023-11-22T06:01:48;6.23;;;5.57;;
27983;SDS011;15317;50.360;8.726;2023-11-22T06:06:51;6.10;;;5.50;;
27983;SDS011;15317;50.360;8.726;2023-11-22T06:11:56;6.43;;;5.37;;
27983;SDS011;15317;50.360;8.726;2023-11-22T06:16:59;7.03;;;5.67;;
27983;SDS011;15317;50.360;8.726;2023-11-22T06:22:02;6.43;;;5.83;;
27983;SDS011;15317;50.360;8.726;2023-11-22T06:27:07;7.87;;;5.63;;
27983;SDS011;15317;50.360;8.726;2023-11-22T06:32:11;5.93;;;5.23;;
27983;SDS011;15317;50.360;8.726;2023-11-22T06:37:14;6.30;;;5.37;;
27983;SDS011;15317;50.360;8.726;2023-11-22T06:42:18;6.13;;;5.50;;
27983;SDS011;15317;50.360;8.726;2023-11-22T06:47:22;5.80;;;4.77;;
27983;SDS011;15317;50.360;8.726;2023-11-22T06:52:25;6.20;;;5.10;;
27983;SDS011;15317;50.360;8.726;2023-11-22T06:57:30;8.60;;;6.10;;
27983;SDS011;15317;50.360;8.726;2023-11-22T07:02:33;5.57;;;5.00;;
27983;SDS011;15317;50.360;8.726;2023-11-22T07:07:37;6.40;;;5.07;;
27983;SDS011;15317;50.360;8.726;2023-11-22T07:12:42;5.20;;;4.70;;
27983;SDS011;15317;50.360;8.726;2023-11-22T07:17:46;5.53;;;4.87;;
27983;SDS011;15317;50.360;8.726;2023-11-22T07:22:49;7.53;;;5.57;;
27983;SDS011;15317;50.360;8.726;2023-11-22T07:27:58;5.30;;;4.80;;
27983;SDS011;15317;50.360;8.726;2023-11-22T07:33:02;6.10;;;4.90;;
27983;SDS011;15317;50.360;8.726;2023-11-22T07:38:05;6.07;;;4.97;;
27983;SDS011;15317;50.360;8.726;2023-11-22T07:43:14;5.40;;;4.70;;
27983;SDS011;15317;50.360;8.726;2023-11-22T07:48:17;6.40;;;4.77;;
27983;SDS011;15317;50.360;8.726;2023-11-22T07:53:20;5.13;;;4.63;;
27983;SDS011;15317;50.360;8.726;2023-11-22T07:58:25;5.40;;;4.83;;
27983;SDS011;15317;50.360;8.726;2023-11-22T08:03:28;7.70;;;5.27;;
27983;SDS011;15317;50.360;8.726;2023-11-22T08:08:32;5.63;;;5.10;;
27983;SDS011;15317;50.360;8.726;2023-11-22T08:13:41;5.60;;;4.97;;
27983;SDS011;15317;50.360;8.726;2023-11-22T08:18:47;5.20;;;4.70;;
27983;SDS011;15317;50.360;8.726;2023-11-22T08:23:50;6.17;;;5.03;;
27983;SDS011;15317;50.360;8.726;2023-11-22T08:28:56;6.03;;;5.10;;
27983;SDS011;15317;50.360;8.726;2023-11-22T08:33:59;4.80;;;4.30;;
27983;SDS011;15317;50.360;8.726;2023-11-22T08:39:03;5.23;;;4.73;;
27983;SDS011;15317;50.360;8.726;2023-11-22T08:44:07;6.60;;;5.00;;
27983;SDS011;15317;50.360;8.726;2023-11-22T08:49:11;6.17;;;5.07;;
27983;SDS011;15317;50.360;8.726;2023-11-22T08:54:14;6.00;;;4.23;;
27983;SDS011;15317;50.360;8.726;2023-11-22T08:59:20;5.70;;;4.67;;
27983;SDS011;15317;50.360;8.726;2023-11-22T09:04:23;5.20;;;4.70;;
27983;SDS011;15317;50.360;8.726;2023-11-22T09:09:28;7.87;;;4.60;;
27983;SDS011;15317;50.360;8.726;2023-11-22T09:14:34;4.50;;;4.10;;
27983;SDS011;15317;50.360;8.726;2023-11-22T09:19:37;4.40;;;4.00;;
27983;SDS011;15317;50.360;8.726;2023-11-22T09:24:41;4.40;;;4.00;;
27983;SDS011;15317;50.360;8.726;2023-11-22T09:29:48;4.30;;;3.90;;
27983;SDS011;15317;50.360;8.726;2023-11-22T09:34:51;6.00;;;4.30;;
27983;SDS011;15317;50.360;8.726;2023-11-22T09:39:59;4.60;;;3.83;;
27983;SDS011;15317;50.360;8.726;2023-11-22T09:45:07;4.07;;;3.67;;
27983;SDS011;15317;50.360;8.726;2023-11-22T09:50:11;5.30;;;4.03;;
27983;SDS011;15317;50.360;8.726;2023-11-22T09:55:22;4.27;;;3.87;;
27983;SDS011;15317;50.360;8.726;2023-11-22T10:00:32;4.17;;;3.77;;
27983;SDS011;15317;50.360;8.726;2023-11-22T10:05:35;4.10;;;3.80;;
27983;SDS011;15317;50.360;8.726;2023-11-22T10:10:38;4.53;;;3.83;;
27983;SDS011;15317;50.360;8.726;2023-11-22T10:15:45;4.13;;;3.70;;
27983;SDS011;15317;50.360;8.726;2023-11-22T10:20:49;5.27;;;4.23;;
27983;SDS011;15317;50.360;8.726;2023-11-22T10:25:53;4.30;;;3.80;;
27983;SDS011;15317;50.360;8.726;2023-11-22T10:30:58;4.33;;;3.93;;
27983;SDS011;15317;50.360;8.726;2023-11-22T10:36:03;4.43;;;4.03;;
27983;SDS011;15317;50.360;8.726;2023-11-22T10:41:07;4.13;;;3.73;;
27983;SDS011;15317;50.360;8.726;2023-11-22T10:46:13;3.90;;;3.50;;
27983;SDS011;15317;50.360;8.726;2023-11-22T10:51:19;3.80;;;3.50;;
27983;SDS011;15317;50.360;8.726;2023-11-22T10:56:25;3.90;;;3.50;;
27983;SDS011;15317;50.360;8.726;2023-11-22T11:01:31;3.70;;;3.40;;
27983;SDS011;15317;50.360;8.726;2023-11-22T11:06:36;3.73;;;3.43;;
27983;SDS011;15317;50.360;8.726;2023-11-22T11:11:39;4.33;;;3.97;;
27983;SDS011;15317;50.360;8.726;2023-11-22T11:16:44;4.77;;;3.97;;
27983;SDS011;15317;50.360;8.726;2023-11-22T11:21:51;4.40;;;3.90;;
27983;SDS011;15317;50.360;8.726;2023-11-22T11:26:54;3.77;;;3.40;;
27983;SDS011;15317;50.360;8.726;2023-11-22T11:31:59;4.17;;;3.70;;
27983;SDS011;15317;50.360;8.726;2023-11-22T11:37:03;4.40;;;4.00;;
27983;SDS011;15317;50.360;8.726;2023-11-22T11:42:09;5.23;;;3.60;;
27983;SDS011;15317;50.360;8.726;2023-11-22T11:47:20;3.97;;;3.67;;
27983;SDS011;15317;50.360;8.726;2023-11-22T11:52:24;3.80;;;3.50;;
27983;SDS011;15317;50.360;8.726;2023-11-22T11:57:30;3.50;;;3.20;;
27983;SDS011;15317;50.360;8.726;2023-11-22T12:02:35;4.90;;;4.40;;
27983;SDS011;15317;50.360;8.726;2023-11-22T12:07:38;4.13;;;3.73;;
27983;SDS011;15317;50.360;8.726;2023-11-22T12:12:43;4.70;;;3.87;;
27983;SDS011;15317;50.360;8.726;2023-11-22T12:17:49;4.17;;;3.80;;
27983;SDS011;15317;50.360;8.726;2023-11-22T12:22:54;4.87;;;3.50;;
27983;SDS011;15317;50.360;8.726;2023-11-22T12:27:57;4.20;;;3.80;;
27983;SDS011;15317;50.360;8.726;2023-11-22T12:33:02;4.20;;;3.80;;
27983;SDS011;15317;50.360;8.726;2023-11-22T12:38:07;4.40;;;4.00;;
27983;SDS011;15317;50.360;8.726;2023-11-22T12:43:11;4.33;;;3.60;;
27983;SDS011;15317;50.360;8.726;2023-11-22T12:48:23;3.83;;;3.40;;
27983;SDS011;15317;50.360;8.726;2023-11-22T12:53:28;4.17;;;3.63;;
27983;SDS011;15317;50.360;8.726;2023-11-22T12:58:32;3.87;;;3.57;;
27983;SDS011;15317;50.360;8.726;2023-11-22T13:03:37;3.87;;;3.57;;
27983;SDS011;15317;50.360;8.726;2023-11-22T13:08:40;4.27;;;3.87;;
27983;SDS011;15317;50.360;8.726;2023-11-22T13:13:45;4.17;;;3.70;;
27983;SDS011;15317;50.360;8.726;2023-11-22T13:18:50;4.80;;;4.30;;
27983;SDS011;15317;50.360;8.726;2023-11-22T13:23:54;4.17;;;3.63;;
27983;SDS011;15317;50.360;8.726;2023-11-22T13:28:57;4.27;;;3.87;;
27983;SDS011;15317;50.360;8.726;2023-11-22T13:34:03;4.27;;;3.87;;
27983;SDS011;15317;50.360;8.726;2023-11-22T13:39:07;5.03;;;3.77;;
27983;SDS011;15317;50.360;8.726;2023-11-22T13:44:11;4.77;;;4.30;;
27983;SDS011;15317;50.360;8.726;2023-11-22T13:49:16;4.93;;;4.10;;
27983;SDS011;15317;50.360;8.726;2023-11-22T13:54:19;5.17;;;3.80;;
27983;SDS011;15317;50.360;8.726;2023-11-22T13:59:23;4.30;;;3.90;;
27983;SDS011;15317;50.360;8.726;2023-11-22T14:04:27;4.17;;;3.70;;
27983;SDS011;15317;50.360;8.726;2023-11-22T14:09:30;4.33;;;3.90;;
27983;SDS011;15317;50.360;8.726;2023-11-22T14:14:33;5.00;;;4.07;;
27983;SDS011;15317;50.360;8.726;2023-11-22T14:19:38;4.50;;;4.00;;
27983;SDS011;15317;50.360;8.726;2023-11-22T14:24:53;4.73;;;4.10;;
27983;SDS011;15317;50.360;8.726;2023-11-22T14:29:57;4.37;;;3.97;;
27983;SDS011;15317;50.360;8.726;2023-11-22T14:35:02;4.43;;;4.03;;
27983;SDS011;15317;50.360;8.726;2023-11-22T14:40:07;4.07;;;3.40;;
27983;SDS011;15317;50.360;8.726;2023-11-22T14:45:15;3.87;;;3.47;;
27983;SDS011;15317;50.360;8.726;2023-11-22T14:50:23;5.20;;;4.10;;
27983;SDS011;15317;50.360;8.726;2023-11-22T14:55:29;4.33;;;3.93;;
27983;SDS011;15317;50.360;8.726;2023-11-22T15:00:34;4.40;;;4.00;;
27983;SDS011;15317;50.360;8.726;2023-11-22T15:05:40;4.20;;;3.80;;
27983;SDS011;15317;50.360;8.726;2023-11-22T15:10:44;3.80;;;3.50;;
27983;SDS011;15317;50.360;8.726;2023-11-22T15:15:47;4.80;;;3.67;;
27983;SDS011;15317;50.360;8.726;2023-11-22T15:20:52;4.63;;;3.67;;
27983;SDS011;15317;50.360;8.726;2023-11-22T15:25:55;4.80;;;3.70;;
27983;SDS011;15317;50.360;8.726;2023-11-22T15:30:59;3.93;;;3.53;;
27983;SDS011;15317;50.360;8.726;2023-11-22T15:36:05;4.43;;;3.90;;
27983;SDS011;15317;50.360;8.726;2023-11-22T15:41:09;4.90;;;3.97;;
27983;SDS011;15317;50.360;8.726;2023-11-22T15:46:18;4.40;;;3.60;;
27983;SDS011;15317;50.360;8.726;2023-11-22T15:51:27;4.37;;;3.73;;
27983;SDS011;15317;50.360;8.726;2023-11-22T15:56:30;4.13;;;3.73;;
27983;SDS011;15317;50.360;8.726;2023-11-22T16:01:33;4.23;;;3.83;;
27983;SDS011;15317;50.360;8.726;2023-11-22T16:06:38;5.27;;;4.10;;
27983;SDS011;15317;50.360;8.726;2023-11-22T16:11:41;5.10;;;4.20;;
27983;SDS011;15317;50.360;8.726;2023-11-22T16:16:44;5.10;;;3.90;;
27983;SDS011;15317;50.360;8.726;2023-11-22T16:21:49;4.70;;;4.23;;
27983;SDS011;15317;50.360;8.726;2023-11-22T16:26:52;4.50;;;3.87;;
27983;SDS011;15317;50.360;8.726;2023-11-22T16:31:55;5.50;;;4.67;;
27983;SDS011;15317;50.360;8.726;2023-11-22T16:37:00;6.43;;;4.50;;
27983;SDS011;15317;50.360;8.726;2023-11-22T16:42:05;4.90;;;4.17;;
27983;SDS011;15317;50.360;8.726;2023-11-22T16:47:09;5.87;;;4.80;;
27983;SDS011;15317;50.360;8.726;2023-11-22T16:52:18;5.83;;;4.70;;
27983;SDS011;15317;50.360;8.726;2023-11-22T16:57:30;5.17;;;4.67;;
27983;SDS011;15317;50.360;8.726;2023-11-22T17:02:33;6.03;;;5.43;;
27983;SDS011;15317;50.360;8.726;2023-11-22T17:07:38;7.10;;;6.17;;
27983;SDS011;15317;50.360;8.726;2023-11-22T17:12:41;6.63;;;5.93;;
27983;SDS011;15317;50.360;8.726;2023-11-22T17:17:44;7.10;;;6.40;;
27983;SDS011;15317;50.360;8.726;2023-11-22T17:22:49;6.30;;;5.70;;
27983;SDS011;15317;50.360;8.726;2023-11-22T17:27:52;8.10;;;6.50;;
27983;SDS011;15317;50.360;8.726;2023-11-22T17:32:56;6.87;;;6.17;;
27983;SDS011;15317;50.360;8.726;2023-11-22T17:38:01;6.43;;;5.83;;
27983;SDS011;15317;50.360;8.726;2023-11-22T17:43:05;7.53;;;5.77;;
27983;SDS011;15317;50.360;8.726;2023-11-22T17:48:09;8.13;;;5.73;;
27983;SDS011;15317;50.360;8.726;2023-11-22T17:53:13;6.40;;;5.80;;
27983;SDS011;15317;50.360;8.726;2023-11-22T17:58:17;7.40;;;6.07;;
27983;SDS011;15317;50.360;8.726;2023-11-22T18:03:21;6.30;;;5.70;;
27983;SDS011;15317;50.360;8.726;2023-11-22T18:08:26;7.80;;;6.53;;
27983;SDS011;15317;50.360;8.726;2023-11-22T18:13:30;8.47;;;6.80;;
27983;SDS011;15317;50.360;8.726;2023-11-22T18:18:33;7.70;;;6.70;;
27983;SDS011;15317;50.360;8.726;2023-11-22T18:23:38;7.33;;;6.60;;
27983;SDS011;15317;50.360;8.726;2023-11-22T18:28:45;6.80;;;6.10;;
27983;SDS011;15317;50.360;8.726;2023-11-22T18:33:48;8.57;;;6.70;;
27983;SDS011;15317;50.360;8.726;2023-11-22T18:38:53;9.37;;;6.33;;
27983;SDS011;15317;50.360;8.726;2023-11-22T18:43:56;9.23;;;6.60;;
27983;SDS011;15317;50.360;8.726;2023-11-22T18:48:59;7.83;;;6.50;;
27983;SDS011;15317;50.360;8.726;2023-11-22T18:54:05;7.17;;;6.47;;
27983;SDS011;15317;50.360;8.726;2023-11-22T18:59:08;7.77;;;6.90;;
27983;SDS011;15317;50.360;8.726;2023-11-22T19:04:11;7.77;;;6.90;;
27983;SDS011;15317;50.360;8.726;2023-11-22T19:09:16;7.67;;;6.87;;
27983;SDS011;15317;50.360;8.726;2023-11-22T19:14:19;8.17;;;7.33;;
27983;SDS011;15317;50.360;8.726;2023-11-22T19:19:23;10.67;;;8.77;;
27983;SDS011;15317;50.360;8.726;2023-11-22T19:24:28;9.60;;;8.60;;
27983;SDS011;15317;50.360;8.726;2023-11-22T19:29:31;10.53;;;8.97;;
27983;SDS011;15317;50.360;8.726;2023-11-22T19:34:34;10.10;;;7.87;;
27983;SDS011;15317;50.360;8.726;2023-11-22T19:39:39;11.53;;;9.50;;
27983;SDS011;15317;50.360;8.726;2023-11-22T19:44:43;11.13;;;9.00;;
27983;SDS011;15317;50.360;8.726;2023-11-22T19:49:46;9.87;;;8.63;;
27983;SDS011;15317;50.360;8.726;2023-11-22T19:54:51;9.70;;;8.73;;
27983;SDS011;15317;50.360;8.726;2023-11-22T19:59:54;10.43;;;9.33;;
27983;SDS011;15317;50.360;8.726;2023-11-22T20:04:58;10.80;;;9.17;;
27983;SDS011;15317;50.360;8.726;2023-11-22T20:10:03;10.47;;;9.47;;
27983;SDS011;15317;50.360;8.726;2023-11-22T20:15:09;10.10;;;9.00;;
27983;SDS011;15317;50.360;8.726;2023-11-22T20:20:12;9.67;;;8.60;;
27983;SDS011;15317;50.360;8.726;2023-11-22T20:25:17;9.33;;;8.43;;
27983;SDS011;15317;50.360;8.726;2023-11-22T20:30:21;9.13;;;8.23;;
27983;SDS011;15317;50.360;8.726;2023-11-22T20:35:24;9.33;;;8.37;;
27983;SDS011;15317;50.360;8.726;2023-11-22T20:40:29;8.90;;;7.70;;
27983;SDS011;15317;50.360;8.726;2023-11-22T20:45:32;9.63;;;8.63;;
27983;SDS011;15317;50.360;8.726;2023-11-22T20:50:35;9.60;;;8.60;;
27983;SDS011;15317;50.360;8.726;2023-11-22T20:55:40;10.03;;;8.67;;
27983;SDS011;15317;50.360;8.726;2023-11-22T21:00:43;10.13;;;9.13;;
27983;SDS011;15317;50.360;8.726;2023-11-22T21:05:47;10.80;;;9.60;;
27983;SDS011;15317;50.360;8.726;2023-11-22T21:10:51;10.93;;;9.00;;
27983;SDS011;15317;50.360;8.726;2023-11-22T21:15:56;10.83;;;9.57;;
27983;SDS011;15317;50.360;8.726;2023-11-22T21:20:59;10.43;;;9.30;;
27983;SDS011;15317;50.360;8.726;2023-11-22T21:26:04;10.70;;;9.67;;
27983;SDS011;15317;50.360;8.726;2023-11-22T21:31:12;10.07;;;9.03;;
27983;SDS011;15317;50.360;8.726;2023-11-22T21:36:20;10.10;;;9.10;;
27983;SDS011;15317;50.360;8.726;2023-11-22T21:41:25;10.43;;;9.43;;
27983;SDS011;15317;50.360;8.726;2023-11-22T21:46:29;10.60;;;9.57;;
27983;SDS011;15317;50.360;8.726;2023-11-22T21:51:34;13.13;;;9.53;;
27983;SDS011;15317;50.360;8.726;2023-11-22T21:56:43;10.70;;;9.50;;
27983;SDS011;15317;50.360;8.726;2023-11-22T22:01:46;10.10;;;9.03;;
27983;SDS011;15317;50.360;8.726;2023-11-22T22:06:50;10.07;;;9.07;;
27983;SDS011;15317;50.360;8.726;2023-11-22T22:11:55;9.57;;;8.57;;
27983;SDS011;15317;50.360;8.726;2023-11-22T22:16:59;10.23;;;9.23;;
27983;SDS011;15317;50.360;8.726;2023-11-22T22:22:03;11.10;;;8.93;;
27983;SDS011;15317;50.360;8.726;2023-11-22T22:27:07;11.30;;;9.13;;
27983;SDS011;15317;50.360;8.726;2023-11-22T22:32:10;10.53;;;9.37;;
27983;SDS011;15317;50.360;8.726;2023-11-22T22:37:14;10.23;;;8.67;;
27983;SDS011;15317;50.360;8.726;2023-11-22T22:42:19;12.43;;;9.80;;
27983;SDS011;15317;50.360;8.726;2023-11-22T22:47:22;10.70;;;9.60;;
27983;SDS011;15317;50.360;8.726;2023-11-22T22:52:26;11.60;;;9.50;;
27983;SDS011;15317;50.360;8.726;2023-11-22T22:57:31;10.67;;;9.57;;
27983;SDS011;15317;50.360;8.726;2023-11-22T23:02:34;11.27;;;10.17;;
27983;SDS011;15317;50.360;8.726;2023-11-22T23:07:38;11.43;;;10.27;;
27983;SDS011;15317;50.360;8.726;2023-11-22T23:12:43;11.67;;;10.13;;
27983;SDS011;15317;50.360;8.726;2023-11-22T23:17:46;16.43;;;10.47;;
27983;SDS011;15317;50.360;8.726;2023-11-22T23:22:50;10.33;;;9.23;;
27983;SDS011;15317;50.360;8.726;2023-11-22T23:27:56;10.73;;;9.63;;
27983;SDS011;15317;50.360;8.726;2023-11-22T23:32:59;11.70;;;10.50;;
27983;SDS011;15317;50.360;8.726;2023-11-22T23:38:03;11.97;;;10.77;;
27983;SDS011;15317;50.360;8.726;2023-11-22T23:43:09;11.97;;;10.60;;
27983;SDS011;15317;50.360;8.726;2023-11-22T23:48:12;12.43;;;11.00;;
27983;SDS011;15317;50.360;8.726;2023-11-22T23:53:16;13.70;;;11.97;;
27983;SDS011;15317;50.360;8.726;2023-11-22T23:58:21;14.80;;;11.33;;
